createdAt,value
2023-01-17T00:00:36.795Z,1.75
2023-01-17T00:03:04.760Z,1.73
2023-01-17T00:05:50.043Z,1.02
2023-01-17T00:08:35.372Z,1.17
2023-01-17T00:11:02.249Z,4.63
2023-01-17T00:13:29.061Z,0.65
2023-01-17T00:15:55.870Z,2.50
2023-01-17T00:18:22.695Z,2.35
2023-01-17T00:21:08.466Z,0.75
2023-01-17T00:23:43.864Z,1.23
2023-01-17T00:26:18.166Z,1.37
2023-01-17T00:28:45.483Z,1.20
2023-01-17T00:31:13.402Z,1.13
2023-01-17T00:33:40.196Z,0.80
2023-01-17T00:36:07.571Z,3.40
2023-01-17T00:38:36.044Z,3.45
2023-01-17T00:41:11.305Z,7.00
2023-01-17T00:43:56.981Z,1.57
2023-01-17T00:46:43.091Z,1.67
2023-01-17T00:49:28.839Z,1.35
2023-01-17T00:52:14.674Z,5.93
2023-01-17T00:54:59.872Z,1.90
2023-01-17T00:57:45.204Z,3.08
2023-01-17T01:00:30.777Z,3.45
2023-01-17T01:03:16.334Z,2.55
2023-01-17T01:06:01.960Z,2.97
2023-01-17T01:08:48.055Z,1.20
2023-01-17T01:11:35.267Z,7.97
2023-01-17T01:14:20.853Z,8.23
2023-01-17T01:17:06.585Z,5.22
2023-01-17T01:19:52.113Z,3.45
2023-01-17T01:22:37.643Z,2.50
2023-01-17T01:25:23.351Z,0.60
2023-01-17T01:28:08.693Z,5.03
2023-01-17T01:30:54.120Z,7.90
2023-01-17T01:33:20.987Z,6.38
2023-01-17T01:35:51.664Z,2.58
2023-01-17T01:38:19.692Z,14.95
2023-01-17T01:40:48.059Z,4.97
2023-01-17T01:43:15.779Z,3.13
2023-01-17T01:45:45.786Z,16.58
2023-01-17T01:48:19.828Z,9.02
2023-01-17T01:50:47.799Z,7.68
2023-01-17T01:53:14.954Z,10.50
2023-01-17T01:55:43.231Z,8.52
2023-01-17T01:58:13.295Z,6.78
2023-01-17T02:00:40.997Z,7.55
2023-01-17T02:03:10.733Z,2.58
2023-01-17T02:05:38.230Z,1.48
2023-01-17T02:08:07.886Z,6.00
2023-01-17T02:10:35.531Z,3.58
2023-01-17T02:13:02.956Z,6.22
2023-01-17T02:15:35.961Z,6.55
2023-01-17T02:18:05.798Z,2.95
2023-01-17T02:20:32.732Z,10.43
2023-01-17T02:23:17.949Z,2.67
2023-01-17T02:26:04.579Z,3.72
2023-01-17T02:28:37.605Z,5.70
2023-01-17T02:31:22.886Z,5.85
2023-01-17T02:34:00.585Z,12.45
2023-01-17T02:36:32.604Z,5.88
2023-01-17T02:39:18.289Z,4.88
2023-01-17T02:41:47.493Z,2.67
2023-01-17T02:44:17.026Z,3.78
2023-01-17T02:47:10.303Z,6.57
2023-01-17T02:49:37.273Z,4.93
2023-01-17T02:52:23.431Z,2.88
2023-01-17T02:55:01.275Z,3.45
2023-01-17T02:57:49.381Z,8.70
2023-01-17T03:00:27.520Z,4.80
2023-01-17T03:02:54.457Z,4.85
2023-01-17T03:05:39.988Z,2.50
2023-01-17T03:08:07.165Z,3.15
2023-01-17T03:10:35.232Z,2.65
2023-01-17T03:13:03.124Z,9.00
2023-01-17T03:15:30.132Z,2.35
2023-01-17T03:17:58.949Z,7.28
2023-01-17T03:20:25.918Z,6.07
2023-01-17T03:22:52.910Z,8.48
2023-01-17T03:25:19.958Z,10.15
2023-01-17T03:27:46.970Z,5.55
2023-01-17T03:30:13.969Z,4.80
2023-01-17T03:32:40.784Z,2.75
2023-01-17T03:35:08.087Z,3.60
2023-01-17T03:37:35.352Z,10.48
2023-01-17T03:40:02.102Z,9.88
2023-01-17T03:42:29.068Z,10.68
2023-01-17T03:44:55.911Z,2.60
2023-01-17T03:47:22.709Z,4.88
2023-01-17T03:49:49.516Z,6.82
2023-01-17T03:52:16.390Z,4.88
2023-01-17T03:54:43.251Z,3.42
2023-01-17T03:57:13.448Z,12.23
2023-01-17T03:59:40.371Z,5.22
2023-01-17T04:02:07.286Z,3.58
2023-01-17T04:04:34.231Z,8.80
2023-01-17T04:07:01.054Z,6.20
2023-01-17T04:09:27.917Z,7.90
2023-01-17T04:11:54.878Z,10.57
2023-01-17T04:14:21.894Z,5.22
2023-01-17T04:16:48.837Z,16.85
2023-01-17T04:19:15.619Z,8.05
2023-01-17T04:21:42.997Z,7.47
2023-01-17T04:24:09.895Z,8.68
2023-01-17T04:26:36.846Z,10.20
2023-01-17T04:29:03.708Z,9.50
2023-01-17T04:31:30.606Z,12.20
2023-01-17T04:33:57.440Z,10.20
2023-01-17T04:36:24.403Z,7.80
2023-01-17T04:38:51.271Z,3.17
2023-01-17T04:41:18.056Z,4.43
2023-01-17T04:43:44.892Z,2.35
2023-01-17T04:46:11.827Z,9.43
2023-01-17T04:48:38.670Z,8.40
2023-01-17T04:51:05.883Z,12.07
2023-01-17T04:53:32.768Z,7.80
2023-01-17T04:55:59.681Z,9.27
2023-01-17T04:58:27.797Z,6.53
2023-01-17T05:00:54.967Z,13.38
2023-01-17T05:03:22.896Z,7.05
2023-01-17T05:05:49.764Z,4.15
2023-01-17T05:08:16.792Z,16.30
2023-01-17T05:10:45.394Z,14.18
2023-01-17T05:13:12.668Z,5.60
2023-01-17T05:15:39.777Z,7.53
2023-01-17T05:18:08.750Z,14.80
2023-01-17T05:20:36.705Z,10.27
2023-01-17T05:23:03.857Z,5.65
2023-01-17T05:25:31.397Z,2.03
2023-01-17T05:28:00.283Z,4.88
2023-01-17T05:30:28.581Z,7.57
2023-01-17T05:32:56.641Z,7.75
2023-01-17T05:35:25.817Z,13.35
2023-01-17T05:37:52.961Z,4.90
2023-01-17T05:40:21.127Z,10.05
2023-01-17T05:42:48.698Z,10.82
2023-01-17T05:45:17.079Z,17.92
2023-01-17T05:47:44.423Z,14.30
2023-01-17T05:50:15.121Z,7.38
2023-01-17T05:52:42.297Z,6.25
2023-01-17T05:55:09.457Z,20.73
2023-01-17T05:57:36.551Z,8.45
2023-01-17T06:00:03.759Z,5.38
2023-01-17T06:02:31.760Z,18.02
2023-01-17T06:04:58.587Z,7.22
2023-01-17T06:07:26.598Z,10.57
2023-01-17T06:09:53.480Z,7.53
2023-01-17T06:12:22.041Z,8.35
2023-01-17T06:14:48.997Z,7.00
2023-01-17T06:17:15.801Z,5.57
2023-01-17T06:19:43.069Z,5.97
2023-01-17T06:22:09.840Z,6.88
2023-01-17T06:24:36.715Z,14.07
2023-01-17T06:27:03.691Z,9.88
2023-01-17T06:29:30.577Z,11.70
2023-01-17T06:31:57.470Z,8.52
2023-01-17T06:34:24.402Z,5.07
2023-01-17T06:36:51.390Z,9.02
2023-01-17T06:39:18.180Z,12.63
2023-01-17T06:41:45.114Z,11.02
2023-01-17T06:44:11.884Z,10.35
2023-01-17T06:46:38.999Z,9.90
2023-01-17T06:49:05.973Z,5.72
2023-01-17T06:51:32.777Z,16.83
2023-01-17T06:53:59.570Z,13.77
2023-01-17T06:56:26.567Z,6.82
2023-01-17T06:58:53.440Z,6.93
2023-01-17T07:01:20.423Z,11.02
2023-01-17T07:03:47.393Z,11.02
2023-01-17T07:06:14.315Z,11.68
2023-01-17T07:08:41.068Z,10.82
2023-01-17T07:11:08.541Z,8.02
2023-01-17T07:13:36.605Z,5.20
2023-01-17T07:16:04.235Z,10.07
2023-01-17T07:18:31.445Z,15.50
2023-01-17T07:20:58.710Z,9.10
2023-01-17T07:23:25.763Z,12.00
2023-01-17T07:25:52.907Z,15.05
2023-01-17T07:28:20.005Z,7.82
2023-01-17T07:30:47.228Z,9.68
2023-01-17T07:33:14.935Z,9.77
2023-01-17T07:35:41.867Z,13.40
2023-01-17T07:38:17.453Z,11.13
2023-01-17T07:40:44.950Z,15.50
2023-01-17T07:43:15.915Z,11.82
2023-01-17T07:45:53.323Z,17.13
2023-01-17T07:48:21.848Z,30.13
2023-01-17T07:50:56.153Z,13.10
2023-01-17T07:53:24.296Z,18.30
2023-01-17T07:55:51.269Z,21.33
2023-01-17T07:58:18.456Z,17.90
2023-01-17T08:00:45.857Z,22.75
2023-01-17T08:03:14.197Z,21.13
2023-01-17T08:05:42.328Z,22.13
2023-01-17T08:08:09.608Z,22.33
2023-01-17T08:10:36.575Z,25.63
2023-01-17T08:13:03.813Z,21.80
2023-01-17T08:15:30.667Z,27.08
2023-01-17T08:17:58.681Z,19.88
2023-01-17T08:20:27.832Z,18.33
2023-01-17T08:22:55.795Z,21.40
2023-01-17T08:25:25.941Z,25.52
2023-01-17T08:27:57.037Z,20.08
2023-01-17T08:30:24.174Z,17.17
2023-01-17T08:32:51.307Z,23.63
2023-01-17T08:35:20.178Z,31.88
2023-01-17T08:37:47.898Z,21.02
2023-01-17T08:40:17.630Z,17.90
2023-01-17T08:42:44.547Z,21.45
2023-01-17T08:45:11.995Z,27.15
2023-01-17T08:47:38.818Z,24.20
2023-01-17T08:50:06.878Z,21.42
2023-01-17T08:52:34.101Z,36.90
2023-01-17T08:55:00.938Z,31.60
2023-01-17T08:57:28.081Z,21.63
2023-01-17T08:59:55.004Z,17.48
2023-01-17T09:02:23.675Z,20.48
2023-01-17T09:04:50.867Z,21.50
2023-01-17T09:07:18.903Z,16.55
2023-01-17T09:09:46.454Z,22.65
2023-01-17T09:12:13.346Z,18.17
2023-01-17T09:14:40.218Z,20.85
2023-01-17T09:17:07.166Z,17.25
2023-01-17T09:19:35.598Z,33.95
2023-01-17T09:22:04.304Z,24.45
2023-01-17T09:24:32.807Z,20.27
2023-01-17T09:27:00.027Z,39.40
2023-01-17T09:29:26.987Z,33.42
2023-01-17T09:31:54.092Z,23.35
2023-01-17T09:34:21.613Z,22.20
2023-01-17T09:36:48.542Z,18.27
2023-01-17T09:39:15.605Z,28.85
2023-01-17T09:42:01.102Z,22.25
2023-01-17T09:44:29.561Z,20.50
2023-01-17T09:47:22.806Z,26.58
2023-01-17T09:49:49.820Z,25.40
2023-01-17T09:52:18.704Z,20.25
2023-01-17T09:54:46.859Z,24.67
2023-01-17T09:57:23.071Z,20.02
2023-01-17T10:02:39.823Z,19.58
2023-01-17T10:05:17.622Z,24.52
2023-01-17T10:07:50.941Z,20.00
2023-01-17T10:10:17.893Z,18.73
2023-01-17T10:12:54.186Z,18.63
2023-01-17T10:15:36.323Z,23.17
2023-01-17T10:18:28.838Z,27.23
2023-01-17T10:21:04.642Z,19.75
2023-01-17T10:23:38.062Z,26.13
2023-01-17T10:26:15.905Z,19.83
2023-01-17T10:28:48.931Z,18.98
2023-01-17T10:31:20.902Z,24.08
2023-01-17T10:33:57.737Z,29.70
2023-01-17T10:36:26.460Z,20.10
2023-01-17T10:38:55.218Z,27.73
2023-01-17T10:41:25.811Z,30.58
2023-01-17T10:43:55.744Z,21.65
2023-01-17T10:46:28.689Z,25.33
2023-01-17T10:48:55.890Z,17.10
2023-01-17T10:52:00.342Z,21.77
2023-01-17T10:54:40.790Z,16.58
2023-01-17T10:57:13.788Z,16.27
2023-01-17T10:59:41.721Z,18.80
2023-01-17T11:02:17.964Z,17.98
2023-01-17T11:04:47.890Z,20.95
2023-01-17T11:07:14.777Z,24.05
2023-01-17T11:09:46.139Z,20.98
2023-01-17T11:12:21.079Z,16.58
2023-01-17T11:15:26.024Z,25.23
2023-01-17T11:18:01.492Z,24.55
2023-01-17T11:20:32.833Z,17.58
2023-01-17T11:23:21.131Z,14.65
2023-01-17T11:26:08.973Z,19.38
2023-01-17T11:28:37.104Z,19.15
2023-01-17T11:31:22.651Z,21.50
2023-01-17T11:33:56.473Z,15.43
2023-01-17T11:36:25.144Z,17.70
2023-01-17T11:39:06.041Z,13.40
2023-01-17T11:41:34.491Z,13.60
2023-01-17T11:44:02.098Z,20.45
2023-01-17T11:46:29.874Z,20.88
2023-01-17T11:48:57.749Z,13.77
2023-01-17T11:51:27.469Z,18.40
2023-01-17T11:53:55.667Z,13.05
2023-01-17T11:56:28.030Z,12.13
2023-01-17T11:59:08.026Z,9.77
2023-01-17T12:01:43.396Z,10.05
2023-01-17T12:04:36.781Z,10.63
2023-01-17T12:07:09.776Z,6.50
2023-01-17T12:09:48.067Z,6.03
2023-01-17T12:12:56.421Z,8.45
2023-01-17T12:15:23.280Z,4.07
2023-01-17T12:18:09.081Z,14.68
2023-01-17T12:20:54.691Z,4.55
2023-01-17T12:23:21.569Z,4.50
2023-01-17T12:25:48.681Z,5.90
2023-01-17T12:28:15.681Z,4.72
2023-01-17T12:31:05.873Z,2.83
2023-01-17T12:33:53.883Z,6.03
2023-01-17T12:36:40.029Z,6.90
2023-01-17T12:39:12.106Z,4.30
2023-01-17T12:41:52.587Z,9.70
2023-01-17T12:44:21.846Z,4.20
2023-01-17T12:46:59.050Z,3.30
2023-01-17T12:49:44.629Z,8.55
2023-01-17T12:52:37.221Z,5.63
2023-01-17T12:55:07.680Z,6.70
2023-01-17T12:57:38.111Z,6.88
2023-01-17T13:00:08.337Z,5.72
2023-01-17T13:02:51.306Z,7.53
2023-01-17T13:05:23.804Z,7.57
2023-01-17T13:08:02.773Z,4.50
2023-01-17T13:10:38.935Z,4.35
2023-01-17T13:13:16.396Z,3.60
2023-01-17T13:15:43.363Z,5.20
2023-01-17T13:18:14.621Z,6.35
2023-01-17T13:21:04.756Z,4.70
2023-01-17T13:23:50.530Z,5.60
2023-01-17T13:26:24.803Z,6.60
2023-01-17T13:29:01.146Z,3.20
2023-01-17T13:33:55.120Z,3.28
2023-01-17T13:36:22.027Z,2.92
2023-01-17T13:38:55.056Z,7.05
2023-01-17T13:41:34.194Z,12.95
2023-01-17T13:44:20.440Z,2.60
2023-01-17T13:47:04.315Z,9.43
2023-01-17T13:49:34.537Z,4.63
2023-01-17T13:52:11.165Z,5.47
2023-01-17T13:54:58.557Z,5.85
2023-01-17T13:57:30.373Z,3.13
2023-01-17T13:59:58.255Z,7.78
2023-01-17T14:02:38.227Z,4.70
2023-01-17T14:05:15.101Z,3.83
2023-01-17T14:07:42.538Z,5.18
2023-01-17T14:10:27.693Z,4.07
2023-01-17T14:12:55.033Z,4.80
2023-01-17T14:15:32.337Z,7.32
2023-01-17T14:18:00.699Z,6.05
2023-01-17T14:20:32.377Z,4.32
2023-01-17T14:23:00.848Z,5.55
2023-01-17T14:25:38.149Z,4.40
2023-01-17T14:28:16.743Z,6.22
2023-01-17T14:30:43.739Z,2.95
2023-01-17T14:33:16.939Z,2.38
2023-01-17T14:35:54.852Z,2.75
2023-01-17T14:38:23.471Z,2.47
2023-01-17T14:40:58.874Z,6.88
2023-01-17T14:43:28.110Z,2.70
2023-01-17T14:45:59.236Z,3.42
2023-01-17T14:48:26.160Z,0.88
2023-01-17T14:50:54.341Z,6.53
2023-01-17T14:53:22.685Z,2.38
2023-01-17T14:55:55.238Z,3.20
2023-01-17T14:58:22.222Z,2.13
2023-01-17T15:00:50.740Z,1.65
2023-01-17T15:03:17.678Z,2.65
2023-01-17T15:05:46.864Z,3.92
2023-01-17T15:08:14.858Z,2.92
2023-01-17T15:11:03.209Z,1.60
2023-01-17T15:13:43.860Z,2.28
2023-01-17T15:16:20.328Z,7.00
2023-01-17T15:18:47.837Z,2.53
2023-01-17T15:21:22.174Z,1.48
2023-01-17T15:23:51.795Z,2.13
2023-01-17T15:26:20.179Z,1.75
2023-01-17T15:28:47.458Z,5.38
2023-01-17T15:31:16.775Z,1.77
2023-01-17T15:33:47.411Z,2.38
2023-01-17T15:36:14.173Z,4.50
2023-01-17T15:38:47.660Z,4.13
2023-01-17T15:41:15.623Z,3.40
2023-01-17T15:43:44.350Z,2.53
2023-01-17T15:46:21.140Z,3.83
2023-01-17T15:48:48.155Z,7.82
2023-01-17T15:51:29.451Z,2.95
2023-01-17T15:53:56.496Z,7.97
2023-01-17T15:56:33.064Z,13.18
2023-01-17T15:59:18.680Z,7.20
2023-01-17T16:01:52.704Z,10.07
2023-01-17T16:04:33.503Z,5.35
2023-01-17T16:07:20.536Z,7.43
2023-01-17T16:12:14.331Z,3.90
2023-01-17T16:14:59.614Z,4.03
2023-01-17T16:17:30.308Z,4.50
2023-01-17T16:19:57.412Z,4.60
2023-01-17T16:22:24.389Z,5.72
2023-01-17T16:24:51.233Z,10.65
2023-01-17T16:27:18.117Z,10.75
2023-01-17T16:29:44.977Z,6.13
2023-01-17T16:32:11.871Z,6.93
2023-01-17T16:34:38.782Z,5.80
2023-01-17T16:37:05.861Z,7.07
2023-01-17T16:39:32.913Z,5.50
2023-01-17T16:42:03.811Z,10.93
2023-01-17T16:44:31.127Z,4.68
2023-01-17T16:46:59.439Z,9.35
2023-01-17T16:49:26.265Z,6.10
2023-01-17T16:51:53.234Z,7.90
2023-01-17T16:54:20.290Z,6.22
2023-01-17T16:56:47.254Z,6.53
2023-01-17T16:59:14.161Z,9.00
2023-01-17T17:01:41.112Z,5.97
2023-01-17T17:04:10.855Z,7.30
2023-01-17T17:06:38.133Z,8.70
2023-01-17T17:09:05.175Z,10.13
2023-01-17T17:11:32.281Z,8.95
2023-01-17T17:13:59.211Z,9.43
2023-01-17T17:16:29.915Z,7.47
2023-01-17T17:18:58.075Z,10.43
2023-01-17T17:21:25.090Z,10.65
2023-01-17T17:23:54.947Z,10.10
2023-01-17T17:26:21.783Z,11.50
2023-01-17T17:28:52.929Z,9.82
2023-01-17T17:31:19.983Z,9.93
2023-01-17T17:33:47.175Z,10.43
2023-01-17T17:36:14.321Z,9.10
2023-01-17T17:38:53.704Z,14.02
2023-01-17T17:41:21.913Z,10.57
2023-01-17T17:43:48.967Z,11.55
2023-01-17T17:46:15.762Z,19.15
2023-01-17T17:48:43.016Z,12.95
2023-01-17T17:51:21.231Z,18.35
2023-01-17T17:53:48.141Z,15.00
2023-01-17T17:56:14.889Z,19.30
2023-01-17T17:58:42.201Z,13.60
2023-01-17T18:01:09.137Z,11.70
2023-01-17T18:03:36.095Z,10.52
2023-01-17T18:06:07.495Z,12.30
2023-01-17T18:08:35.379Z,14.80
2023-01-17T18:11:03.005Z,13.27
2023-01-17T18:13:30.633Z,10.57
2023-01-17T18:16:05.655Z,10.98
2023-01-17T18:18:32.907Z,18.98
2023-01-17T18:21:10.437Z,18.20
2023-01-17T18:23:38.086Z,10.85
2023-01-17T18:26:05.381Z,11.32
2023-01-17T18:28:32.443Z,20.83
2023-01-17T18:31:04.410Z,12.10
2023-01-17T18:33:31.965Z,17.95
2023-01-17T18:36:00.278Z,18.58
2023-01-17T18:38:37.843Z,15.43
2023-01-17T18:41:09.499Z,14.02
2023-01-17T18:43:36.754Z,19.38
2023-01-17T18:46:04.410Z,13.20
2023-01-17T18:48:31.434Z,15.27
2023-01-17T18:50:59.411Z,15.05
2023-01-17T18:53:26.601Z,18.17
2023-01-17T18:55:56.962Z,16.27
2023-01-17T18:58:24.908Z,15.13
2023-01-17T19:00:52.866Z,16.67
2023-01-17T19:03:20.633Z,19.60
2023-01-17T19:05:48.354Z,13.32
2023-01-17T19:08:16.031Z,16.10
2023-01-17T19:10:43.677Z,19.30
2023-01-17T19:13:10.812Z,20.65
2023-01-17T19:15:37.642Z,26.02
2023-01-17T19:18:04.713Z,18.90
2023-01-17T19:20:31.747Z,18.20
2023-01-17T19:22:58.567Z,16.42
2023-01-17T19:25:25.731Z,22.23
2023-01-17T19:27:52.975Z,19.27
2023-01-17T19:30:20.125Z,18.40
2023-01-17T19:32:49.704Z,22.08
2023-01-17T19:35:17.574Z,16.17
2023-01-17T19:37:48.485Z,17.10
2023-01-17T19:40:16.134Z,21.00
2023-01-17T19:42:43.246Z,18.92
2023-01-17T19:45:10.985Z,21.80
2023-01-17T19:47:39.535Z,26.67
2023-01-17T19:50:11.781Z,21.38
2023-01-17T19:52:39.947Z,18.85
2023-01-17T19:55:13.104Z,21.55
2023-01-17T19:57:40.549Z,21.00
2023-01-17T20:00:08.828Z,28.08
2023-01-17T20:02:39.332Z,26.27
2023-01-17T20:05:06.482Z,21.13
2023-01-17T20:07:33.809Z,25.23
2023-01-17T20:10:00.735Z,21.80
2023-01-17T20:12:27.625Z,20.67
2023-01-17T20:14:54.520Z,23.40
2023-01-17T20:17:21.481Z,24.05
2023-01-17T20:19:48.372Z,22.42
2023-01-17T20:22:15.279Z,20.15
2023-01-17T20:24:42.864Z,34.92
2023-01-17T20:27:09.641Z,22.65
2023-01-17T20:29:40.585Z,27.77
2023-01-17T20:32:08.038Z,26.83
2023-01-17T20:34:34.851Z,20.77
2023-01-17T20:37:04.841Z,25.63
2023-01-17T20:39:32.835Z,30.83
2023-01-17T20:42:00.055Z,23.17
2023-01-17T20:44:27.219Z,24.58
2023-01-17T20:46:54.213Z,23.48
2023-01-17T20:49:21.943Z,24.55
2023-01-17T20:51:49.335Z,23.20
2023-01-17T20:54:17.732Z,21.58
2023-01-17T20:56:47.250Z,22.10
2023-01-17T20:59:15.716Z,26.58
2023-01-17T21:01:44.048Z,22.67
2023-01-17T21:04:11.766Z,23.20
2023-01-17T21:06:39.728Z,22.73
2023-01-17T21:09:07.555Z,26.35
2023-01-17T21:11:34.741Z,22.13
2023-01-17T21:14:01.723Z,22.25
2023-01-17T21:16:28.956Z,24.52
2023-01-17T21:18:56.192Z,23.27
2023-01-17T21:21:24.401Z,26.13
2023-01-17T21:23:52.292Z,27.73
2023-01-17T21:26:19.797Z,22.10
2023-01-17T21:28:47.658Z,26.40
2023-01-17T21:31:25.863Z,23.63
2023-01-17T21:33:52.938Z,19.85
2023-01-17T21:36:21.090Z,23.73
2023-01-17T21:38:52.334Z,21.05
2023-01-17T21:41:20.697Z,29.10
2023-01-17T21:43:47.981Z,24.75
2023-01-17T21:46:14.846Z,23.10
2023-01-17T21:48:41.772Z,30.50
2023-01-17T21:51:08.892Z,23.42
2023-01-17T21:53:36.443Z,26.73
2023-01-17T21:56:22.952Z,21.88
2023-01-17T21:58:53.862Z,29.20
2023-01-17T22:01:22.637Z,25.45
2023-01-17T22:03:51.379Z,20.02
2023-01-17T22:06:18.580Z,23.92
2023-01-17T22:08:45.465Z,22.45
2023-01-17T22:11:13.591Z,19.58
2023-01-17T22:13:41.669Z,23.40
2023-01-17T22:16:10.532Z,19.52
2023-01-17T22:18:40.054Z,26.33
2023-01-17T22:21:08.327Z,20.08
2023-01-17T22:23:35.437Z,22.58
2023-01-17T22:26:03.519Z,20.27
2023-01-17T22:28:32.041Z,25.13
2023-01-17T22:31:05.604Z,25.10
2023-01-17T22:33:32.518Z,23.38
2023-01-17T22:35:59.588Z,26.70
2023-01-17T22:38:26.462Z,25.55
2023-01-17T22:40:53.296Z,26.17
2023-01-17T22:43:20.174Z,24.20
2023-01-17T22:45:47.074Z,25.02
2023-01-17T22:48:13.999Z,22.48
2023-01-17T22:50:40.877Z,25.48
2023-01-17T22:53:08.621Z,27.75
2023-01-17T22:55:35.587Z,26.60
2023-01-17T22:58:02.539Z,22.10
2023-01-17T23:00:29.364Z,27.80
2023-01-17T23:02:56.548Z,23.73
2023-01-17T23:05:23.618Z,23.98
2023-01-17T23:07:50.816Z,22.17
2023-01-17T23:10:36.235Z,25.95
2023-01-17T23:13:03.071Z,28.45
2023-01-17T23:15:48.659Z,28.30
2023-01-17T23:18:33.963Z,19.98
2023-01-17T23:21:00.757Z,25.02
2023-01-17T23:23:27.583Z,25.92
2023-01-17T23:25:59.153Z,30.15
2023-01-17T23:28:26.074Z,29.10
2023-01-17T23:30:52.965Z,26.10
2023-01-17T23:33:19.940Z,22.15
2023-01-17T23:35:47.151Z,28.30
2023-01-17T23:38:28.534Z,18.33
2023-01-17T23:41:18.099Z,22.05
2023-01-17T23:43:45.025Z,25.63
2023-01-17T23:46:12.970Z,19.20
2023-01-17T23:48:40.052Z,28.13
2023-01-17T23:51:09.594Z,26.60
2023-01-17T23:53:37.304Z,18.60
2023-01-17T23:56:13.882Z,19.63
2023-01-17T23:58:40.641Z,20.05
